Comer, Georgia
Current Conditions -  °F | °C
As of 9:51 AM on Friday 24 Oct 2014 (Local Time) from KAHN Reporting Station
Clear Clear  
Wind Chill: 56°   Ceiling: Unl
Heat Index: 56°   Visibility: 10mi
Dew Point: 47°   Wind: 5mph
Humidity: 72%   Direction: 100°E
Pressure: 30.08"   Gusts: NA
Location:  34.06°N, 83.13°W
Report Text: KAHN 241351Z 10004KT 10SM CLR 13/08 A3008 RMK AO2 SLP185 T01330083
Loading
Personal Weather Stations






























Interactive Weather Map New forecast layout! Learn more

10-Day Weather Forecast

Advertisements
Track Severe Weather on mobile